Haydock, United Kingdom
Current Conditions -  °F | °C
As of 1:20 PM on Thursday 18 Dec 2014 (Local Time) from EGGP Reporting Station
Broken Clouds Broken Clouds  
Wind Chill: 55°   Ceiling: 2400
Heat Index: 55°   Visibility: 6mi
Dew Point: 50°   Wind: 22mph
Humidity: 82%   Direction: 220°SW
Pressure: 29.59"   Gusts: NA
Location:  53.47°N, 2.68°W
Report Text: EGGP 181320Z 22019KT 9999 SCT018 BKN024 13/10 Q1002
Loading
Personal Weather Stations






























Interactive Weather Map New forecast layout! Learn more

10-Day Weather Forecast

Advertisements
Track Severe Weather on mobile